EGGD/BRS METAR and TAF weather

Enter ICAO airport designator
Station Type Date Time Source
EGGD METAR 2018/07/16 23:50 UTC NOAA

EGGD 162350Z AUTO 26007KT 9999 NCD 13/13 Q1016


Station Type Date Time Source
EGGD Decoded METAR 2018/07/16 23:50 UTC NOAA

Bristol / Lulsgate , United Kingdom (EGGD) 51-23N 002-43W
Jul 16, 2018 - 07:50 PM EDT / 2018.07.16 2350 UTC
Wind: from the W (260 degrees) at 8 MPH (7 KT):0
Visibility: greater than 7 mile(s):0
Temperature: 55 F (13 C)
Dew Point: 55 F (13 C)
Relative Humidity: 100%
Pressure (altimeter): 30.00 in. Hg (1016 hPa)
ob: EGGD 162350Z AUTO 26007KT 9999 NCD 13/13 Q1016
cycle: 0

Station Type Date Time Source
EGGD TAF 2018/07/16 18:15 UTC NOAA

TAF EGGD 161656Z 1618/1718 26012KT 9999 SCT030


Example: see airport list